createdAt,value
2018-03-07T00:01:06.309Z,46.03
2018-03-07T00:03:35.917Z,42.20
2018-03-07T00:06:04.760Z,41.67
2018-03-07T00:08:33.610Z,43.67
2018-03-07T00:11:02.460Z,45.63
2018-03-07T00:13:32.069Z,43.20
2018-03-07T00:16:01.672Z,45.67
2018-03-07T00:18:31.278Z,44.67
2018-03-07T00:21:00.893Z,43.20
2018-03-07T00:23:30.498Z,45.43
2018-03-07T00:26:00.105Z,47.87
2018-03-07T00:28:29.714Z,48.33
2018-03-07T00:30:59.318Z,46.83
2018-03-07T00:33:28.963Z,49.07
2018-03-07T00:35:57.783Z,47.40
2018-03-07T00:38:26.613Z,47.60
2018-03-07T00:40:55.473Z,47.27
2018-03-07T00:43:24.317Z,48.73
2018-03-07T00:45:53.148Z,51.57
2018-03-07T00:48:21.983Z,47.27
2018-03-07T00:50:50.842Z,51.20
2018-03-07T00:53:20.438Z,52.90
2018-03-07T00:55:49.292Z,56.77
2018-03-07T00:58:18.122Z,52.63
2018-03-07T01:00:47.059Z,56.87
2018-03-07T01:03:15.888Z,55.07
2018-03-07T01:05:45.517Z,54.60
2018-03-07T01:08:14.373Z,52.50
2018-03-07T01:10:43.998Z,56.20
2018-03-07T01:13:13.614Z,57.17
2018-03-07T01:15:42.431Z,53.17
2018-03-07T01:18:11.314Z,55.40
2018-03-07T01:20:40.159Z,61.77
2018-03-07T01:23:09.768Z,58.30
2018-03-07T01:25:39.367Z,54.43
2018-03-07T01:28:08.987Z,57.80
2018-03-07T01:30:38.585Z,53.97
2018-03-07T01:33:08.193Z,57.00
2018-03-07T01:35:37.827Z,57.80
2018-03-07T01:38:06.672Z,54.13
2018-03-07T01:40:35.506Z,54.67
2018-03-07T01:43:04.360Z,65.80
2018-03-07T01:45:33.985Z,53.13
2018-03-07T01:48:02.817Z,55.80
2018-03-07T01:50:31.666Z,59.90
2018-03-07T01:53:01.302Z,60.60
2018-03-07T01:55:30.137Z,62.83
2018-03-07T01:57:59.754Z,60.67
2018-03-07T02:00:29.902Z,58.63
2018-03-07T02:02:59.486Z,64.90
2018-03-07T02:05:29.114Z,62.23
2018-03-07T02:07:57.990Z,61.70
2018-03-07T02:10:27.592Z,60.67
2018-03-07T02:12:57.219Z,67.13
2018-03-07T02:15:26.062Z,66.33
2018-03-07T02:17:54.902Z,60.90
2018-03-07T02:20:23.754Z,64.27
2018-03-07T02:22:53.375Z,65.53
2018-03-07T02:25:22.986Z,67.67
2018-03-07T02:27:51.813Z,64.73
2018-03-07T02:30:20.681Z,66.57
2018-03-07T02:32:49.538Z,70.63
2018-03-07T02:35:18.359Z,72.50
2018-03-07T02:37:47.197Z,70.03
2018-03-07T02:40:16.036Z,70.03
2018-03-07T02:42:44.889Z,67.67
2018-03-07T02:45:13.728Z,72.30
2018-03-07T02:47:42.557Z,68.03
2018-03-07T02:50:11.381Z,70.63
2018-03-07T02:52:40.226Z,64.83
2018-03-07T02:55:09.072Z,66.47
2018-03-07T02:57:38.681Z,69.83
2018-03-07T03:00:08.318Z,70.20
2018-03-07T03:02:37.157Z,63.80
2018-03-07T03:05:06.003Z,66.20
2018-03-07T03:07:34.858Z,73.20
2018-03-07T03:10:04.465Z,75.77
2018-03-07T03:12:34.084Z,63.27
2018-03-07T03:15:02.952Z,72.37
2018-03-07T03:17:31.834Z,72.10
2018-03-07T03:20:00.665Z,67.67
2018-03-07T03:22:29.481Z,81.33
2018-03-07T03:24:58.315Z,71.33
2018-03-07T03:27:27.921Z,77.47
2018-03-07T03:29:57.570Z,75.50
2018-03-07T03:32:27.298Z,72.07
2018-03-07T03:34:56.153Z,85.63
2018-03-07T03:37:25.002Z,77.17
2018-03-07T03:39:53.854Z,75.87
2018-03-07T03:42:22.790Z,88.13
2018-03-07T03:44:51.593Z,76.30
2018-03-07T03:47:21.222Z,79.90
2018-03-07T03:49:50.172Z,75.73
2018-03-07T03:52:19.011Z,72.53
2018-03-07T03:54:48.767Z,76.57
2018-03-07T03:57:17.666Z,72.67
2018-03-07T03:59:47.327Z,71.20
2018-03-07T04:02:16.170Z,72.27
2018-03-07T04:04:45.778Z,73.47
2018-03-07T04:07:15.422Z,74.77
2018-03-07T04:09:44.294Z,74.30
2018-03-07T04:12:13.142Z,74.40
2018-03-07T04:14:41.983Z,75.40
2018-03-07T04:17:11.185Z,73.90
2018-03-07T04:19:40.030Z,76.40
2018-03-07T04:22:09.642Z,72.07
2018-03-07T04:24:39.252Z,73.30
2018-03-07T04:27:08.891Z,74.17
2018-03-07T04:29:38.717Z,80.57
2018-03-07T04:32:07.564Z,68.03
2018-03-07T04:34:37.161Z,79.67
2018-03-07T04:37:06.778Z,80.77
2018-03-07T04:39:36.381Z,84.30
2018-03-07T04:42:05.998Z,84.77
2018-03-07T04:44:35.626Z,78.40
2018-03-07T04:47:04.799Z,76.47
2018-03-07T04:49:34.437Z,79.03
2018-03-07T04:52:03.275Z,78.50
2018-03-07T04:54:32.122Z,81.27
2018-03-07T04:57:00.974Z,75.00
2018-03-07T04:59:30.590Z,85.87
2018-03-07T05:01:59.422Z,79.53
2018-03-07T05:04:28.266Z,75.80
2018-03-07T05:06:57.611Z,75.57
2018-03-07T05:09:26.592Z,80.13
2018-03-07T05:11:55.413Z,76.07
2018-03-07T05:14:24.470Z,80.00
2018-03-07T05:16:53.323Z,86.17
2018-03-07T05:19:22.933Z,82.40
2018-03-07T05:21:52.541Z,85.60
2018-03-07T05:24:22.174Z,86.67
2018-03-07T05:26:51.759Z,93.23
2018-03-07T05:29:21.394Z,86.10
2018-03-07T05:31:50.242Z,90.90
2018-03-07T05:34:19.862Z,80.80
2018-03-07T05:36:49.461Z,77.33
2018-03-07T05:39:19.078Z,75.77
2018-03-07T05:41:48.706Z,91.63
2018-03-07T05:44:17.545Z,82.33
2018-03-07T05:46:46.396Z,72.60
2018-03-07T05:49:15.225Z,73.80
2018-03-07T05:51:44.071Z,74.43
2018-03-07T05:54:13.756Z,73.63
2018-03-07T05:56:44.088Z,86.05
2018-03-07T05:59:12.923Z,70.30
2018-03-07T06:01:41.758Z,71.63
2018-03-07T06:04:10.911Z,72.40
2018-03-07T06:06:39.759Z,61.10
2018-03-07T06:09:08.613Z,72.67
2018-03-07T06:11:38.222Z,89.30
2018-03-07T06:14:07.816Z,71.60
2018-03-07T06:16:37.436Z,78.33
2018-03-07T06:19:07.052Z,80.47
2018-03-07T06:21:36.693Z,76.70
2018-03-07T06:24:05.513Z,88.20
2018-03-07T06:26:34.353Z,77.77
2018-03-07T06:29:03.195Z,64.40
2018-03-07T06:31:32.039Z,78.27
2018-03-07T06:34:00.925Z,73.97
2018-03-07T06:36:30.096Z,62.90
2018-03-07T06:38:59.722Z,72.63
2018-03-07T06:41:28.554Z,68.57
2018-03-07T06:43:57.414Z,73.10
2018-03-07T06:46:26.245Z,73.60
2018-03-07T06:48:55.078Z,80.13
2018-03-07T06:51:23.916Z,78.20
2018-03-07T06:53:52.770Z,75.37
2018-03-07T06:56:22.294Z,77.00
2018-03-07T06:58:51.141Z,79.80
2018-03-07T07:01:20.411Z,79.87
2018-03-07T07:03:49.244Z,73.17
2018-03-07T07:06:18.095Z,81.50
2018-03-07T07:08:46.955Z,82.10
2018-03-07T07:11:16.553Z,77.80
2018-03-07T07:13:47.417Z,78.10
2018-03-07T07:16:17.051Z,82.93
2018-03-07T07:18:45.968Z,79.57
2018-03-07T07:21:14.814Z,81.10
2018-03-07T07:23:43.648Z,82.87
2018-03-07T07:26:13.487Z,82.53
2018-03-07T07:28:42.660Z,76.60
2018-03-07T07:31:11.510Z,78.43
2018-03-07T07:33:40.343Z,80.03
2018-03-07T07:36:09.183Z,79.53
2018-03-07T07:38:38.031Z,76.23
2018-03-07T07:41:07.652Z,79.47
2018-03-07T07:43:37.262Z,82.53
2018-03-07T07:46:06.886Z,86.07
2018-03-07T07:48:35.734Z,85.73
2018-03-07T07:51:06.081Z,81.47
2018-03-07T07:53:35.690Z,82.30
2018-03-07T07:56:05.290Z,84.97
2018-03-07T07:58:34.154Z,80.17
2018-03-07T08:01:03.747Z,85.17
2018-03-07T08:03:32.596Z,86.77
2018-03-07T08:06:01.434Z,71.17
2018-03-07T08:08:31.059Z,65.73
2018-03-07T08:11:01.285Z,63.73
2018-03-07T08:13:30.198Z,67.37
2018-03-07T08:15:59.008Z,67.40
2018-03-07T08:18:27.867Z,68.67
2018-03-07T08:20:56.711Z,60.53
2018-03-07T08:23:26.473Z,63.53
2018-03-07T08:25:55.323Z,67.47
2018-03-07T08:28:24.973Z,63.40
2018-03-07T08:30:53.808Z,60.13
2018-03-07T08:33:22.644Z,63.57
2018-03-07T08:35:51.502Z,63.00
2018-03-07T08:38:21.106Z,61.07
2018-03-07T08:40:50.736Z,60.57
2018-03-07T08:43:19.562Z,62.57
2018-03-07T08:45:48.534Z,68.60
2018-03-07T08:48:17.393Z,66.27
2018-03-07T08:50:46.588Z,64.87
2018-03-07T08:53:16.231Z,54.73
2018-03-07T08:55:45.080Z,57.17
2018-03-07T08:58:14.695Z,60.00
2018-03-07T09:00:43.563Z,58.70
2018-03-07T09:03:12.403Z,56.30
2018-03-07T09:05:41.243Z,53.20
2018-03-07T09:08:10.865Z,53.10
2018-03-07T09:10:39.773Z,54.83
2018-03-07T09:13:08.622Z,50.97
2018-03-07T09:15:38.229Z,50.80
2018-03-07T09:18:07.862Z,52.37
2018-03-07T09:20:37.013Z,53.27
2018-03-07T09:23:05.864Z,48.97
2018-03-07T09:25:35.326Z,44.63
2018-03-07T09:28:04.934Z,42.70
2018-03-07T09:30:34.553Z,37.47
2018-03-07T09:33:04.161Z,37.30
2018-03-07T09:35:33.791Z,45.73
2018-03-07T09:38:02.637Z,38.67
2018-03-07T09:40:32.262Z,40.40
2018-03-07T09:43:01.895Z,37.60
2018-03-07T09:45:30.740Z,34.93
2018-03-07T09:48:00.358Z,26.30
2018-03-07T09:50:30.018Z,28.03
2018-03-07T09:52:59.679Z,26.27
2018-03-07T09:55:28.562Z,23.20
2018-03-07T09:57:58.178Z,25.83
2018-03-07T10:00:27.029Z,25.40
2018-03-07T10:02:55.874Z,27.97
2018-03-07T10:05:24.746Z,27.63
2018-03-07T10:07:53.578Z,30.60
2018-03-07T10:10:22.469Z,35.20
2018-03-07T10:12:51.315Z,33.60
2018-03-07T10:15:20.166Z,50.87
2018-03-07T10:17:48.995Z,54.10
2018-03-07T10:20:18.645Z,61.90
2018-03-07T10:22:48.055Z,57.40
2018-03-07T10:25:17.225Z,61.17
2018-03-07T10:27:46.079Z,57.60
2018-03-07T10:30:16.439Z,53.60
2018-03-07T10:32:45.293Z,52.80
2018-03-07T10:35:14.173Z,51.00
2018-03-07T10:37:43.017Z,49.20
2018-03-07T10:40:11.861Z,51.10
2018-03-07T10:42:41.504Z,50.57
2018-03-07T10:45:11.121Z,50.67
2018-03-07T10:47:40.010Z,42.87
2018-03-07T10:50:08.858Z,42.33
2018-03-07T10:52:37.720Z,45.40
2018-03-07T10:55:06.554Z,46.07
2018-03-07T10:57:36.162Z,45.20
2018-03-07T11:00:05.809Z,39.60
2018-03-07T11:02:35.430Z,43.70
2018-03-07T11:05:05.931Z,44.53
2018-03-07T11:07:35.565Z,36.27
2018-03-07T11:10:04.418Z,30.33
2018-03-07T11:12:34.029Z,31.73
2018-03-07T11:15:03.666Z,29.53
2018-03-07T11:17:32.532Z,24.33
2018-03-07T11:20:02.170Z,28.97
2018-03-07T11:22:31.030Z,24.57
2018-03-07T11:25:00.671Z,24.00
2018-03-07T11:27:30.396Z,20.30
2018-03-07T11:29:59.232Z,25.37
2018-03-07T11:32:28.838Z,22.20
2018-03-07T11:34:58.482Z,22.83
2018-03-07T11:37:27.330Z,19.23
2018-03-07T11:39:56.525Z,19.60
2018-03-07T11:42:26.134Z,18.33
2018-03-07T11:44:55.773Z,16.33
2018-03-07T11:47:24.620Z,15.60
2018-03-07T11:49:54.284Z,15.17
2018-03-07T11:52:23.119Z,13.27
2018-03-07T11:54:53.361Z,12.33
2018-03-07T11:57:23.662Z,14.80
2018-03-07T11:59:52.549Z,14.27
2018-03-07T12:02:21.406Z,16.67
2018-03-07T12:04:50.877Z,15.93
2018-03-07T12:07:19.778Z,15.10
2018-03-07T12:09:48.633Z,15.07
2018-03-07T12:12:18.260Z,13.83
2018-03-07T12:14:47.108Z,15.83
2018-03-07T12:17:16.743Z,14.50
2018-03-07T12:19:45.594Z,13.33
2018-03-07T12:22:15.247Z,14.50
2018-03-07T12:24:44.332Z,18.80
2018-03-07T12:27:13.188Z,14.73
2018-03-07T12:29:42.809Z,15.17
2018-03-07T12:32:12.434Z,15.20
2018-03-07T12:34:41.295Z,17.77
2018-03-07T12:37:10.130Z,14.03
2018-03-07T12:39:38.996Z,11.23
2018-03-07T12:42:08.619Z,11.93
2018-03-07T12:44:37.458Z,14.53
2018-03-07T12:47:07.107Z,12.03
2018-03-07T12:49:35.971Z,12.73
2018-03-07T12:52:05.613Z,11.70
2018-03-07T12:54:34.502Z,11.57
2018-03-07T12:57:03.308Z,10.20
2018-03-07T12:59:32.966Z,9.50
2018-03-07T13:02:02.051Z,11.90
2018-03-07T13:04:31.694Z,11.47
2018-03-07T13:07:00.530Z,11.00
2018-03-07T13:09:30.141Z,9.43
2018-03-07T13:11:59.751Z,8.40
2018-03-07T13:14:28.592Z,6.43
2018-03-07T13:16:57.425Z,7.00
2018-03-07T13:19:27.040Z,8.43
2018-03-07T13:21:56.592Z,8.10
2018-03-07T13:24:25.453Z,7.27
2018-03-07T13:26:54.298Z,8.57
2018-03-07T13:29:23.138Z,12.73
2018-03-07T13:31:51.971Z,11.20
2018-03-07T13:34:20.810Z,5.50
2018-03-07T13:36:49.643Z,5.40
2018-03-07T13:39:18.492Z,5.17
2018-03-07T13:41:47.340Z,5.90
2018-03-07T13:44:19.015Z,6.97
2018-03-07T13:46:48.637Z,5.90
2018-03-07T13:49:17.470Z,4.50
2018-03-07T13:51:46.315Z,5.47
2018-03-07T13:54:15.166Z,6.90
2018-03-07T13:56:44.006Z,7.70
2018-03-07T13:59:12.846Z,7.13
2018-03-07T14:01:42.783Z,9.70
2018-03-07T14:04:12.394Z,7.43
2018-03-07T14:06:41.255Z,8.03
2018-03-07T14:09:10.854Z,8.97
2018-03-07T14:11:40.711Z,7.83
2018-03-07T14:14:09.543Z,9.47
2018-03-07T14:16:38.402Z,8.73
2018-03-07T14:19:07.236Z,8.93
2018-03-07T14:21:37.773Z,10.13
2018-03-07T14:24:07.354Z,9.60
2018-03-07T14:26:36.260Z,9.43
2018-03-07T14:29:05.514Z,9.33
2018-03-07T14:31:34.389Z,10.17
2018-03-07T14:34:03.237Z,9.17
2018-03-07T14:36:33.294Z,9.33
2018-03-07T14:39:02.127Z,9.67
2018-03-07T14:41:31.754Z,8.50
2018-03-07T14:44:00.604Z,9.83
2018-03-07T14:46:29.433Z,10.80
2018-03-07T14:48:59.129Z,9.90
2018-03-07T14:51:27.976Z,9.37
2018-03-07T14:53:56.859Z,10.73
2018-03-07T14:56:25.714Z,12.50
2018-03-07T14:58:55.311Z,9.80
2018-03-07T15:01:24.162Z,9.27
2018-03-07T15:03:53.006Z,9.10
2018-03-07T15:06:21.830Z,9.20
2018-03-07T15:08:50.686Z,8.53
2018-03-07T15:11:20.287Z,7.90
2018-03-07T15:13:49.898Z,9.10
2018-03-07T15:16:19.521Z,8.80
2018-03-07T15:18:48.369Z,8.80
2018-03-07T15:21:17.195Z,9.17
2018-03-07T15:23:46.059Z,8.60
2018-03-07T15:26:14.888Z,9.13
2018-03-07T15:28:45.465Z,8.40
2018-03-07T15:31:14.465Z,12.27
2018-03-07T15:33:44.074Z,12.50
2018-03-07T15:36:14.223Z,8.80
2018-03-07T15:38:43.644Z,8.07
2018-03-07T15:41:12.522Z,9.17
2018-03-07T15:43:41.402Z,7.50
2018-03-07T15:46:11.047Z,10.93
2018-03-07T15:48:39.881Z,9.20
2018-03-07T15:51:09.518Z,7.33
2018-03-07T15:53:38.402Z,8.17
2018-03-07T15:56:07.211Z,9.37
2018-03-07T15:58:36.056Z,9.00
2018-03-07T16:01:05.024Z,9.47
2018-03-07T16:03:35.505Z,9.00
2018-03-07T16:06:05.110Z,7.77
2018-03-07T16:08:34.887Z,7.90
2018-03-07T16:11:03.741Z,11.23
2018-03-07T16:13:33.360Z,8.20
2018-03-07T16:16:02.173Z,9.60
2018-03-07T16:18:31.030Z,7.90
2018-03-07T16:20:59.906Z,10.70
2018-03-07T16:23:30.350Z,7.00
2018-03-07T16:25:59.196Z,7.13
2018-03-07T16:28:28.071Z,8.47
2018-03-07T16:30:56.884Z,7.90
2018-03-07T16:33:25.840Z,7.50
2018-03-07T16:35:54.722Z,10.53
2018-03-07T16:38:23.573Z,6.17
2018-03-07T16:40:53.202Z,6.90
2018-03-07T16:43:22.027Z,7.13
2018-03-07T16:45:50.858Z,10.90
2018-03-07T16:48:20.460Z,9.77
2018-03-07T16:50:50.103Z,6.60
2018-03-07T16:53:19.749Z,6.47
2018-03-07T16:55:48.598Z,6.30
2018-03-07T16:58:17.434Z,6.97
2018-03-07T17:00:46.289Z,6.23
2018-03-07T17:03:15.150Z,6.63
2018-03-07T17:05:44.001Z,8.63
2018-03-07T17:08:12.838Z,9.97
2018-03-07T17:10:41.682Z,10.90
2018-03-07T17:13:11.516Z,6.50
2018-03-07T17:15:40.392Z,6.43
2018-03-07T17:18:09.232Z,6.07
2018-03-07T17:20:38.083Z,5.70
2018-03-07T17:23:06.914Z,5.53
2018-03-07T17:25:35.765Z,5.47
2018-03-07T17:28:05.356Z,5.50
2018-03-07T17:30:34.196Z,4.77
2018-03-07T17:33:03.852Z,5.80
2018-03-07T17:35:32.699Z,5.17
2018-03-07T17:38:02.334Z,5.30
2018-03-07T17:40:31.179Z,5.70
2018-03-07T17:43:00.023Z,6.87
2018-03-07T17:45:28.873Z,6.93
2018-03-07T17:47:57.844Z,5.90
2018-03-07T17:50:26.660Z,6.13
2018-03-07T17:52:56.273Z,7.33
2018-03-07T17:55:25.879Z,5.77
2018-03-07T17:57:56.382Z,8.40
2018-03-07T18:00:25.239Z,7.30
2018-03-07T18:02:54.080Z,6.20
2018-03-07T18:05:22.920Z,6.27
2018-03-07T18:07:51.769Z,10.40
2018-03-07T18:10:21.370Z,5.23
2018-03-07T18:12:50.230Z,4.60
2018-03-07T18:15:19.506Z,5.63
2018-03-07T18:17:48.362Z,5.83
2018-03-07T18:20:17.221Z,5.10
2018-03-07T18:22:46.045Z,4.90
2018-03-07T18:25:14.900Z,5.13
2018-03-07T18:27:44.512Z,3.97
2018-03-07T18:30:14.132Z,4.30
2018-03-07T18:32:43.734Z,4.27
2018-03-07T18:35:13.334Z,4.23
2018-03-07T18:37:42.954Z,4.30
2018-03-07T18:40:11.770Z,5.20
2018-03-07T18:42:40.636Z,6.50
2018-03-07T18:45:09.505Z,6.10
2018-03-07T18:47:39.138Z,13.47
2018-03-07T18:50:07.966Z,7.43
2018-03-07T18:52:36.853Z,19.20
2018-03-07T18:55:05.702Z,26.70
2018-03-07T18:57:34.612Z,20.10
2018-03-07T19:00:04.152Z,13.40
2018-03-07T19:02:33.033Z,13.00
2018-03-07T19:05:01.928Z,20.50
2018-03-07T19:07:30.875Z,13.60
2018-03-07T19:09:59.762Z,10.03
2018-03-07T19:12:29.446Z,6.10
2018-03-07T19:14:58.249Z,5.20
2018-03-07T19:17:27.891Z,8.70
2018-03-07T19:19:56.950Z,5.70
2018-03-07T19:22:26.576Z,5.73
2018-03-07T19:24:55.443Z,8.30
2018-03-07T19:27:25.238Z,7.30
2018-03-07T19:29:54.205Z,7.00
2018-03-07T19:32:23.342Z,8.17
2018-03-07T19:34:52.180Z,8.70
2018-03-07T19:37:21.900Z,9.23
2018-03-07T19:39:50.993Z,12.60
2018-03-07T19:42:19.871Z,10.43
2018-03-07T19:44:48.755Z,10.53
2018-03-07T19:47:18.382Z,10.10
2018-03-07T19:49:47.361Z,9.60
2018-03-07T19:52:16.194Z,11.70
2018-03-07T19:54:45.838Z,11.43
2018-03-07T19:57:14.715Z,14.43
2018-03-07T19:59:44.345Z,13.80
2018-03-07T20:02:13.202Z,14.37
2018-03-07T20:04:42.828Z,15.80
2018-03-07T20:07:11.686Z,13.33
2018-03-07T20:09:40.567Z,13.37
2018-03-07T20:12:09.445Z,12.70
2018-03-07T20:14:39.066Z,11.93
2018-03-07T20:17:07.909Z,12.87
2018-03-07T20:19:36.754Z,13.60
2018-03-07T20:22:05.622Z,11.47
2018-03-07T20:24:35.254Z,10.23
2018-03-07T20:27:04.123Z,10.33
2018-03-07T20:29:32.960Z,10.63
2018-03-07T20:32:01.869Z,11.33
2018-03-07T20:34:30.846Z,11.13
2018-03-07T20:36:59.664Z,13.17
2018-03-07T20:39:29.628Z,13.23
2018-03-07T20:41:58.472Z,12.63
2018-03-07T20:44:28.084Z,13.63
2018-03-07T20:46:57.704Z,16.90
2018-03-07T20:49:26.577Z,18.53
2018-03-07T20:51:56.206Z,23.03
2018-03-07T20:54:25.093Z,21.97
2018-03-07T20:56:53.943Z,18.67
2018-03-07T20:59:22.784Z,18.73
2018-03-07T21:01:51.654Z,19.00
2018-03-07T21:04:20.541Z,21.60
2018-03-07T21:06:50.170Z,23.73
2018-03-07T21:09:19.032Z,17.33
2018-03-07T21:11:47.885Z,21.33
2018-03-07T21:14:17.523Z,19.87
2018-03-07T21:16:46.378Z,21.27
2018-03-07T21:19:15.265Z,19.87
2018-03-07T21:21:44.121Z,25.23
2018-03-07T21:24:12.975Z,23.67
2018-03-07T21:26:42.212Z,25.87
2018-03-07T21:29:11.076Z,24.23
2018-03-07T21:31:39.931Z,23.53
2018-03-07T21:34:09.559Z,28.10
2018-03-07T21:36:38.403Z,29.20
2018-03-07T21:39:07.286Z,29.23
2018-03-07T21:41:36.114Z,25.43
2018-03-07T21:44:05.190Z,31.37
2018-03-07T21:46:34.834Z,29.90
2018-03-07T21:49:03.695Z,32.37
2018-03-07T21:51:33.334Z,30.87
2018-03-07T21:54:02.419Z,34.40
2018-03-07T21:56:31.258Z,35.20
2018-03-07T21:59:00.903Z,35.93
2018-03-07T22:01:29.727Z,35.67
2018-03-07T22:03:58.598Z,38.03
2018-03-07T22:06:27.457Z,38.90
2018-03-07T22:08:57.090Z,38.20
2018-03-07T22:11:25.926Z,42.30
2018-03-07T22:13:54.820Z,41.20
2018-03-07T22:16:23.818Z,41.53
2018-03-07T22:18:52.610Z,42.33
2018-03-07T22:21:22.265Z,39.70
2018-03-07T22:23:51.126Z,40.57
2018-03-07T22:26:20.731Z,51.30
2018-03-07T22:28:50.351Z,35.30
2018-03-07T22:31:19.214Z,41.30
2018-03-07T22:33:48.857Z,37.63
2018-03-07T22:36:18.354Z,25.43
2018-03-07T22:38:47.201Z,34.00
2018-03-07T22:41:16.034Z,28.03
2018-03-07T22:43:44.876Z,30.03
2018-03-07T22:46:14.447Z,27.97
2018-03-07T22:48:43.281Z,25.50
2018-03-07T22:51:12.898Z,27.03
2018-03-07T22:53:42.517Z,29.37
2018-03-07T22:56:12.457Z,29.90
2018-03-07T22:58:41.306Z,29.00
2018-03-07T23:01:10.947Z,24.93
2018-03-07T23:03:39.796Z,26.60
2018-03-07T23:06:08.623Z,27.03
2018-03-07T23:08:37.499Z,27.33
2018-03-07T23:11:06.356Z,27.20
2018-03-07T23:13:35.969Z,30.30
2018-03-07T23:16:05.579Z,28.47
2018-03-07T23:18:35.224Z,29.97
2018-03-07T23:21:04.051Z,33.73
2018-03-07T23:23:32.893Z,31.60
2018-03-07T23:26:01.725Z,29.03
2018-03-07T23:28:30.543Z,31.20
2018-03-07T23:31:00.154Z,30.87
2018-03-07T23:33:29.758Z,30.90
2018-03-07T23:35:59.394Z,31.97
2018-03-07T23:38:28.281Z,33.57
2018-03-07T23:40:57.839Z,33.60
2018-03-07T23:43:26.678Z,32.20
2018-03-07T23:45:55.530Z,40.83
2018-03-07T23:48:25.162Z,38.80
2018-03-07T23:50:54.026Z,42.13
2018-03-07T23:53:23.671Z,42.17
2018-03-07T23:55:52.546Z,39.20
2018-03-07T23:58:21.363Z,42.33
